sensor_id;sensor_type;location;lat;lon;timestamp;P1;durP1;ratioP1;P2;durP2;ratioP2
34725;SDS011;20951;50.818;4.344;2023-05-29T00:02:22;16.65;;;8.82;;
34725;SDS011;20951;50.818;4.344;2023-05-29T00:04:51;17.92;;;8.13;;
34725;SDS011;20951;50.818;4.344;2023-05-29T00:07:21;18.98;;;8.57;;
34725;SDS011;20951;50.818;4.344;2023-05-29T00:09:51;20.00;;;8.88;;
34725;SDS011;20951;50.818;4.344;2023-05-29T00:12:20;15.07;;;8.70;;
34725;SDS011;20951;50.818;4.344;2023-05-29T00:14:49;16.20;;;9.00;;
34725;SDS011;20951;50.818;4.344;2023-05-29T00:17:19;16.45;;;9.35;;
34725;SDS011;20951;50.818;4.344;2023-05-29T00:19:49;15.43;;;9.43;;
34725;SDS011;20951;50.818;4.344;2023-05-29T00:22:19;16.70;;;8.38;;
34725;SDS011;20951;50.818;4.344;2023-05-29T00:24:49;19.30;;;8.73;;
34725;SDS011;20951;50.818;4.344;2023-05-29T00:27:20;18.27;;;9.35;;
34725;SDS011;20951;50.818;4.344;2023-05-29T00:29:50;18.15;;;9.40;;
34725;SDS011;20951;50.818;4.344;2023-05-29T00:32:20;17.45;;;9.07;;
34725;SDS011;20951;50.818;4.344;2023-05-29T00:34:52;16.75;;;9.77;;
34725;SDS011;20951;50.818;4.344;2023-05-29T00:37:22;18.08;;;9.40;;
34725;SDS011;20951;50.818;4.344;2023-05-29T00:39:53;19.83;;;10.00;;
34725;SDS011;20951;50.818;4.344;2023-05-29T00:42:23;18.35;;;9.60;;
34725;SDS011;20951;50.818;4.344;2023-05-29T00:44:54;19.48;;;10.35;;
34725;SDS011;20951;50.818;4.344;2023-05-29T00:47:24;19.58;;;9.82;;
34725;SDS011;20951;50.818;4.344;2023-05-29T00:49:55;20.67;;;9.73;;
34725;SDS011;20951;50.818;4.344;2023-05-29T00:52:25;20.20;;;9.52;;
34725;SDS011;20951;50.818;4.344;2023-05-29T00:54:55;14.25;;;9.40;;
34725;SDS011;20951;50.818;4.344;2023-05-29T00:57:26;17.10;;;9.68;;
34725;SDS011;20951;50.818;4.344;2023-05-29T00:59:56;16.58;;;9.70;;
34725;SDS011;20951;50.818;4.344;2023-05-29T01:02:28;18.33;;;9.98;;
34725;SDS011;20951;50.818;4.344;2023-05-29T01:04:57;18.17;;;9.52;;
34725;SDS011;20951;50.818;4.344;2023-05-29T01:07:27;20.35;;;10.52;;
34725;SDS011;20951;50.818;4.344;2023-05-29T01:09:58;16.42;;;9.20;;
34725;SDS011;20951;50.818;4.344;2023-05-29T01:26:11;19.33;;;10.15;;
34725;SDS011;20951;50.818;4.344;2023-05-29T01:29:02;21.98;;;10.50;;
34725;SDS011;20951;50.818;4.344;2023-05-29T01:31:34;18.33;;;9.48;;
34725;SDS011;20951;50.818;4.344;2023-05-29T01:34:04;18.98;;;10.00;;
34725;SDS011;20951;50.818;4.344;2023-05-29T01:36:35;16.42;;;9.80;;
34725;SDS011;20951;50.818;4.344;2023-05-29T01:39:07;16.20;;;8.93;;
34725;SDS011;20951;50.818;4.344;2023-05-29T01:41:37;16.85;;;10.20;;
34725;SDS011;20951;50.818;4.344;2023-05-29T01:44:09;19.08;;;10.85;;
34725;SDS011;20951;50.818;4.344;2023-05-29T01:46:42;20.02;;;10.82;;
34725;SDS011;20951;50.818;4.344;2023-05-29T01:49:15;19.70;;;9.88;;
34725;SDS011;20951;50.818;4.344;2023-05-29T01:51:46;21.10;;;10.93;;
34725;SDS011;20951;50.818;4.344;2023-05-29T01:54:17;26.50;;;10.77;;
34725;SDS011;20951;50.818;4.344;2023-05-29T01:56:47;21.65;;;10.27;;
34725;SDS011;20951;50.818;4.344;2023-05-29T01:59:18;18.63;;;10.13;;
34725;SDS011;20951;50.818;4.344;2023-05-29T02:01:48;18.40;;;10.32;;
34725;SDS011;20951;50.818;4.344;2023-05-29T02:04:18;18.55;;;10.00;;
34725;SDS011;20951;50.818;4.344;2023-05-29T02:06:49;18.65;;;10.15;;
34725;SDS011;20951;50.818;4.344;2023-05-29T02:09:20;19.98;;;10.13;;
34725;SDS011;20951;50.818;4.344;2023-05-29T02:11:51;17.88;;;10.27;;
34725;SDS011;20951;50.818;4.344;2023-05-29T02:14:21;15.38;;;9.80;;
34725;SDS011;20951;50.818;4.344;2023-05-29T02:16:52;15.50;;;9.68;;
34725;SDS011;20951;50.818;4.344;2023-05-29T02:19:22;19.42;;;10.57;;
34725;SDS011;20951;50.818;4.344;2023-05-29T02:21:53;19.95;;;10.20;;
34725;SDS011;20951;50.818;4.344;2023-05-29T02:24:23;19.25;;;10.00;;
34725;SDS011;20951;50.818;4.344;2023-05-29T02:26:53;17.95;;;9.88;;
34725;SDS011;20951;50.818;4.344;2023-05-29T02:29:23;19.05;;;9.57;;
34725;SDS011;20951;50.818;4.344;2023-05-29T02:31:53;17.83;;;9.57;;
34725;SDS011;20951;50.818;4.344;2023-05-29T02:34:23;20.95;;;9.88;;
34725;SDS011;20951;50.818;4.344;2023-05-29T02:36:53;16.88;;;8.43;;
34725;SDS011;20951;50.818;4.344;2023-05-29T02:39:23;16.05;;;8.48;;
34725;SDS011;20951;50.818;4.344;2023-05-29T02:41:53;19.45;;;8.90;;
34725;SDS011;20951;50.818;4.344;2023-05-29T02:44:23;19.50;;;8.48;;
34725;SDS011;20951;50.818;4.344;2023-05-29T02:46:54;20.52;;;8.73;;
34725;SDS011;20951;50.818;4.344;2023-05-29T02:49:24;16.60;;;7.93;;
34725;SDS011;20951;50.818;4.344;2023-05-29T02:51:54;20.33;;;7.60;;
34725;SDS011;20951;50.818;4.344;2023-05-29T02:54:24;19.23;;;7.65;;
34725;SDS011;20951;50.818;4.344;2023-05-29T02:56:54;17.17;;;7.22;;
34725;SDS011;20951;50.818;4.344;2023-05-29T02:59:25;18.00;;;7.30;;
34725;SDS011;20951;50.818;4.344;2023-05-29T03:01:57;20.33;;;7.28;;
34725;SDS011;20951;50.818;4.344;2023-05-29T03:04:27;17.25;;;6.90;;
34725;SDS011;20951;50.818;4.344;2023-05-29T03:06:58;18.95;;;7.13;;
34725;SDS011;20951;50.818;4.344;2023-05-29T03:09:29;18.83;;;6.55;;
34725;SDS011;20951;50.818;4.344;2023-05-29T03:11:59;17.90;;;7.03;;
34725;SDS011;20951;50.818;4.344;2023-05-29T03:14:31;17.90;;;6.60;;
34725;SDS011;20951;50.818;4.344;2023-05-29T03:17:05;15.82;;;6.00;;
34725;SDS011;20951;50.818;4.344;2023-05-29T03:19:34;18.45;;;6.40;;
34725;SDS011;20951;50.818;4.344;2023-05-29T03:22:04;18.73;;;6.20;;
34725;SDS011;20951;50.818;4.344;2023-05-29T03:24:34;17.80;;;6.07;;
34725;SDS011;20951;50.818;4.344;2023-05-29T03:27:03;19.52;;;6.45;;
34725;SDS011;20951;50.818;4.344;2023-05-29T03:29:33;17.55;;;6.40;;
34725;SDS011;20951;50.818;4.344;2023-05-29T03:32:02;18.58;;;6.22;;
34725;SDS011;20951;50.818;4.344;2023-05-29T03:34:31;17.80;;;5.20;;
34725;SDS011;20951;50.818;4.344;2023-05-29T03:37:01;15.43;;;5.43;;
34725;SDS011;20951;50.818;4.344;2023-05-29T03:39:30;18.20;;;5.82;;
34725;SDS011;20951;50.818;4.344;2023-05-29T03:41:59;17.05;;;5.30;;
34725;SDS011;20951;50.818;4.344;2023-05-29T03:44:29;15.25;;;4.70;;
34725;SDS011;20951;50.818;4.344;2023-05-29T03:46:58;16.38;;;5.13;;
34725;SDS011;20951;50.818;4.344;2023-05-29T03:49:27;19.85;;;5.35;;
34725;SDS011;20951;50.818;4.344;2023-05-29T03:51:56;18.33;;;5.40;;
34725;SDS011;20951;50.818;4.344;2023-05-29T03:54:25;15.43;;;5.25;;
34725;SDS011;20951;50.818;4.344;2023-05-29T03:56:55;16.17;;;4.47;;
34725;SDS011;20951;50.818;4.344;2023-05-29T03:59:23;17.05;;;4.43;;
34725;SDS011;20951;50.818;4.344;2023-05-29T04:01:53;17.13;;;4.40;;
34725;SDS011;20951;50.818;4.344;2023-05-29T04:04:23;15.32;;;4.40;;
34725;SDS011;20951;50.818;4.344;2023-05-29T04:06:52;16.23;;;4.32;;
34725;SDS011;20951;50.818;4.344;2023-05-29T04:09:22;19.33;;;4.25;;
34725;SDS011;20951;50.818;4.344;2023-05-29T04:11:52;14.30;;;4.03;;
34725;SDS011;20951;50.818;4.344;2023-05-29T04:14:21;14.93;;;4.10;;
34725;SDS011;20951;50.818;4.344;2023-05-29T04:16:51;14.20;;;4.15;;
34725;SDS011;20951;50.818;4.344;2023-05-29T04:19:21;14.85;;;4.07;;
34725;SDS011;20951;50.818;4.344;2023-05-29T04:21:51;16.52;;;4.20;;
34725;SDS011;20951;50.818;4.344;2023-05-29T04:24:22;14.80;;;3.67;;
34725;SDS011;20951;50.818;4.344;2023-05-29T04:26:52;16.52;;;4.22;;
34725;SDS011;20951;50.818;4.344;2023-05-29T04:29:23;14.02;;;3.95;;
34725;SDS011;20951;50.818;4.344;2023-05-29T04:31:54;16.02;;;4.25;;
34725;SDS011;20951;50.818;4.344;2023-05-29T04:36:57;20.15;;;3.70;;
34725;SDS011;20951;50.818;4.344;2023-05-29T04:39:28;14.63;;;3.80;;
34725;SDS011;20951;50.818;4.344;2023-05-29T04:41:58;15.25;;;3.90;;
34725;SDS011;20951;50.818;4.344;2023-05-29T04:44:29;14.55;;;4.05;;
34725;SDS011;20951;50.818;4.344;2023-05-29T04:47:00;19.70;;;4.50;;
34725;SDS011;20951;50.818;4.344;2023-05-29T04:49:31;12.43;;;3.65;;
34725;SDS011;20951;50.818;4.344;2023-05-29T04:52:02;14.07;;;4.20;;
34725;SDS011;20951;50.818;4.344;2023-05-29T04:54:33;12.55;;;3.50;;
34725;SDS011;20951;50.818;4.344;2023-05-29T04:57:04;16.00;;;4.18;;
34725;SDS011;20951;50.818;4.344;2023-05-29T04:59:35;16.25;;;3.92;;
34725;SDS011;20951;50.818;4.344;2023-05-29T05:02:05;16.42;;;4.00;;
34725;SDS011;20951;50.818;4.344;2023-05-29T05:04:35;12.52;;;3.47;;
34725;SDS011;20951;50.818;4.344;2023-05-29T05:07:05;12.82;;;3.78;;
34725;SDS011;20951;50.818;4.344;2023-05-29T05:09:36;14.52;;;3.80;;
34725;SDS011;20951;50.818;4.344;2023-05-29T05:12:06;19.90;;;4.20;;
34725;SDS011;20951;50.818;4.344;2023-05-29T05:14:36;15.93;;;4.30;;
34725;SDS011;20951;50.818;4.344;2023-05-29T05:17:07;17.10;;;4.05;;
34725;SDS011;20951;50.818;4.344;2023-05-29T05:19:37;15.98;;;4.00;;
34725;SDS011;20951;50.818;4.344;2023-05-29T05:22:07;16.25;;;3.95;;
34725;SDS011;20951;50.818;4.344;2023-05-29T05:24:37;18.50;;;3.85;;
34725;SDS011;20951;50.818;4.344;2023-05-29T05:27:07;14.52;;;3.42;;
34725;SDS011;20951;50.818;4.344;2023-05-29T05:29:37;16.10;;;4.05;;
34725;SDS011;20951;50.818;4.344;2023-05-29T05:32:07;16.13;;;3.55;;
34725;SDS011;20951;50.818;4.344;2023-05-29T05:34:37;16.92;;;4.07;;
34725;SDS011;20951;50.818;4.344;2023-05-29T05:37:06;16.27;;;3.53;;
34725;SDS011;20951;50.818;4.344;2023-05-29T05:39:37;17.40;;;3.80;;
34725;SDS011;20951;50.818;4.344;2023-05-29T05:42:08;15.20;;;3.55;;
34725;SDS011;20951;50.818;4.344;2023-05-29T05:44:38;15.40;;;4.00;;
34725;SDS011;20951;50.818;4.344;2023-05-29T05:47:09;12.90;;;3.65;;
34725;SDS011;20951;50.818;4.344;2023-05-29T05:49:39;15.60;;;3.28;;
34725;SDS011;20951;50.818;4.344;2023-05-29T05:52:08;14.18;;;3.53;;
34725;SDS011;20951;50.818;4.344;2023-05-29T05:54:39;14.90;;;3.70;;
34725;SDS011;20951;50.818;4.344;2023-05-29T05:57:09;19.30;;;4.20;;
34725;SDS011;20951;50.818;4.344;2023-05-29T05:59:39;20.10;;;4.50;;
34725;SDS011;20951;50.818;4.344;2023-05-29T06:02:09;18.17;;;3.85;;
34725;SDS011;20951;50.818;4.344;2023-05-29T06:04:42;16.65;;;3.75;;
34725;SDS011;20951;50.818;4.344;2023-05-29T06:07:14;15.20;;;4.00;;
34725;SDS011;20951;50.818;4.344;2023-05-29T06:09:45;11.73;;;3.70;;
34725;SDS011;20951;50.818;4.344;2023-05-29T06:12:16;16.05;;;4.03;;
34725;SDS011;20951;50.818;4.344;2023-05-29T06:14:45;15.15;;;3.75;;
34725;SDS011;20951;50.818;4.344;2023-05-29T06:17:15;16.27;;;3.72;;
34725;SDS011;20951;50.818;4.344;2023-05-29T06:19:46;13.55;;;3.35;;
34725;SDS011;20951;50.818;4.344;2023-05-29T06:22:17;14.23;;;3.58;;
34725;SDS011;20951;50.818;4.344;2023-05-29T06:24:46;20.80;;;4.13;;
34725;SDS011;20951;50.818;4.344;2023-05-29T06:27:16;21.10;;;4.28;;
34725;SDS011;20951;50.818;4.344;2023-05-29T06:29:46;15.48;;;3.65;;
34725;SDS011;20951;50.818;4.344;2023-05-29T06:32:16;18.70;;;3.83;;
34725;SDS011;20951;50.818;4.344;2023-05-29T06:34:47;12.50;;;3.83;;
34725;SDS011;20951;50.818;4.344;2023-05-29T06:37:16;14.48;;;3.78;;
34725;SDS011;20951;50.818;4.344;2023-05-29T06:39:46;16.02;;;3.72;;
34725;SDS011;20951;50.818;4.344;2023-05-29T06:42:16;16.30;;;3.80;;
34725;SDS011;20951;50.818;4.344;2023-05-29T06:44:46;14.80;;;3.95;;
34725;SDS011;20951;50.818;4.344;2023-05-29T06:47:14;17.75;;;4.43;;
34725;SDS011;20951;50.818;4.344;2023-05-29T06:49:44;12.98;;;4.05;;
34725;SDS011;20951;50.818;4.344;2023-05-29T06:52:14;16.13;;;4.18;;
34725;SDS011;20951;50.818;4.344;2023-05-29T06:54:44;12.60;;;3.50;;
34725;SDS011;20951;50.818;4.344;2023-05-29T06:57:14;16.60;;;4.03;;
34725;SDS011;20951;50.818;4.344;2023-05-29T06:59:45;13.52;;;4.00;;
34725;SDS011;20951;50.818;4.344;2023-05-29T07:02:15;14.18;;;3.83;;
34725;SDS011;20951;50.818;4.344;2023-05-29T07:04:45;13.10;;;3.45;;
34725;SDS011;20951;50.818;4.344;2023-05-29T07:07:15;11.98;;;3.53;;
34725;SDS011;20951;50.818;4.344;2023-05-29T07:09:46;13.13;;;3.38;;
34725;SDS011;20951;50.818;4.344;2023-05-29T07:12:16;14.23;;;3.85;;
34725;SDS011;20951;50.818;4.344;2023-05-29T07:14:46;12.18;;;3.65;;
34725;SDS011;20951;50.818;4.344;2023-05-29T07:17:15;12.32;;;3.80;;
34725;SDS011;20951;50.818;4.344;2023-05-29T07:19:45;12.45;;;3.53;;
34725;SDS011;20951;50.818;4.344;2023-05-29T07:22:19;14.73;;;3.92;;
34725;SDS011;20951;50.818;4.344;2023-05-29T07:24:48;13.57;;;3.55;;
34725;SDS011;20951;50.818;4.344;2023-05-29T07:27:18;12.50;;;3.50;;
34725;SDS011;20951;50.818;4.344;2023-05-29T07:29:48;15.48;;;3.95;;
34725;SDS011;20951;50.818;4.344;2023-05-29T07:32:18;12.70;;;3.53;;
34725;SDS011;20951;50.818;4.344;2023-05-29T07:34:48;12.40;;;3.50;;
34725;SDS011;20951;50.818;4.344;2023-05-29T07:37:18;14.02;;;3.92;;
34725;SDS011;20951;50.818;4.344;2023-05-29T07:39:48;15.98;;;3.08;;
34725;SDS011;20951;50.818;4.344;2023-05-29T07:42:17;17.02;;;3.70;;
34725;SDS011;20951;50.818;4.344;2023-05-29T07:44:47;11.02;;;3.15;;
34725;SDS011;20951;50.818;4.344;2023-05-29T07:47:16;13.75;;;3.55;;
34725;SDS011;20951;50.818;4.344;2023-05-29T07:49:47;12.32;;;3.58;;
34725;SDS011;20951;50.818;4.344;2023-05-29T07:52:18;11.93;;;3.28;;
34725;SDS011;20951;50.818;4.344;2023-05-29T07:54:49;12.98;;;3.50;;
34725;SDS011;20951;50.818;4.344;2023-05-29T07:57:27;11.43;;;3.17;;
34725;SDS011;20951;50.818;4.344;2023-05-29T07:59:58;8.88;;;3.30;;
34725;SDS011;20951;50.818;4.344;2023-05-29T08:02:34;14.05;;;3.40;;
34725;SDS011;20951;50.818;4.344;2023-05-29T08:05:04;11.65;;;3.25;;
34725;SDS011;20951;50.818;4.344;2023-05-29T08:07:36;13.82;;;3.50;;
34725;SDS011;20951;50.818;4.344;2023-05-29T08:10:05;12.23;;;3.28;;
34725;SDS011;20951;50.818;4.344;2023-05-29T08:12:38;12.70;;;3.42;;
34725;SDS011;20951;50.818;4.344;2023-05-29T08:15:14;13.48;;;3.72;;
34725;SDS011;20951;50.818;4.344;2023-05-29T08:17:45;11.50;;;3.05;;
34725;SDS011;20951;50.818;4.344;2023-05-29T08:20:14;10.50;;;3.03;;
34725;SDS011;20951;50.818;4.344;2023-05-29T08:22:43;9.38;;;2.83;;
34725;SDS011;20951;50.818;4.344;2023-05-29T08:25:14;12.85;;;3.42;;
34725;SDS011;20951;50.818;4.344;2023-05-29T08:27:43;13.70;;;3.50;;
34725;SDS011;20951;50.818;4.344;2023-05-29T08:30:13;14.40;;;3.55;;
34725;SDS011;20951;50.818;4.344;2023-05-29T08:32:49;8.50;;;2.80;;
34725;SDS011;20951;50.818;4.344;2023-05-29T08:35:20;10.75;;;3.20;;
34725;SDS011;20951;50.818;4.344;2023-05-29T08:37:49;9.80;;;3.13;;
34725;SDS011;20951;50.818;4.344;2023-05-29T08:40:19;11.60;;;3.75;;
34725;SDS011;20951;50.818;4.344;2023-05-29T08:42:56;10.90;;;3.53;;
34725;SDS011;20951;50.818;4.344;2023-05-29T08:45:31;11.43;;;3.35;;
34725;SDS011;20951;50.818;4.344;2023-05-29T08:48:05;12.45;;;3.55;;
34725;SDS011;20951;50.818;4.344;2023-05-29T08:50:35;12.30;;;3.95;;
34725;SDS011;20951;50.818;4.344;2023-05-29T08:53:06;12.10;;;3.05;;
34725;SDS011;20951;50.818;4.344;2023-05-29T08:55:32;13.07;;;3.60;;
34725;SDS011;20951;50.818;4.344;2023-05-29T08:57:58;10.27;;;3.25;;
34725;SDS011;20951;50.818;4.344;2023-05-29T09:00:25;12.82;;;3.35;;
34725;SDS011;20951;50.818;4.344;2023-05-29T09:02:54;11.93;;;3.35;;
34725;SDS011;20951;50.818;4.344;2023-05-29T09:05:20;12.80;;;3.47;;
34725;SDS011;20951;50.818;4.344;2023-05-29T09:07:47;15.75;;;3.47;;
34725;SDS011;20951;50.818;4.344;2023-05-29T09:10:14;11.55;;;3.53;;
34725;SDS011;20951;50.818;4.344;2023-05-29T09:12:40;11.70;;;3.22;;
34725;SDS011;20951;50.818;4.344;2023-05-29T09:15:17;11.73;;;3.55;;
34725;SDS011;20951;50.818;4.344;2023-05-29T09:17:44;12.20;;;3.70;;
34725;SDS011;20951;50.818;4.344;2023-05-29T09:20:15;13.57;;;3.70;;
34725;SDS011;20951;50.818;4.344;2023-05-29T09:22:42;13.00;;;3.50;;
34725;SDS011;20951;50.818;4.344;2023-05-29T09:25:33;12.90;;;3.42;;
34725;SDS011;20951;50.818;4.344;2023-05-29T09:28:02;13.68;;;3.70;;
34725;SDS011;20951;50.818;4.344;2023-05-29T09:30:36;12.55;;;3.58;;
34725;SDS011;20951;50.818;4.344;2023-05-29T09:33:04;12.48;;;3.38;;
34725;SDS011;20951;50.818;4.344;2023-05-29T09:35:35;12.68;;;3.88;;
34725;SDS011;20951;50.818;4.344;2023-05-29T09:38:03;13.27;;;4.15;;
34725;SDS011;20951;50.818;4.344;2023-05-29T09:40:30;13.48;;;3.30;;
34725;SDS011;20951;50.818;4.344;2023-05-29T09:43:04;12.15;;;3.50;;
34725;SDS011;20951;50.818;4.344;2023-05-29T09:45:32;11.63;;;3.60;;
34725;SDS011;20951;50.818;4.344;2023-05-29T09:47:59;13.40;;;3.55;;
34725;SDS011;20951;50.818;4.344;2023-05-29T09:50:26;13.70;;;3.33;;
34725;SDS011;20951;50.818;4.344;2023-05-29T09:52:51;15.80;;;4.10;;
34725;SDS011;20951;50.818;4.344;2023-05-29T09:55:24;11.20;;;3.55;;
34725;SDS011;20951;50.818;4.344;2023-05-29T09:57:55;11.07;;;3.47;;
34725;SDS011;20951;50.818;4.344;2023-05-29T10:00:28;12.10;;;3.38;;
34725;SDS011;20951;50.818;4.344;2023-05-29T10:02:57;12.95;;;3.50;;
34725;SDS011;20951;50.818;4.344;2023-05-29T10:05:26;11.65;;;3.33;;
34725;SDS011;20951;50.818;4.344;2023-05-29T10:07:56;11.07;;;3.35;;
34725;SDS011;20951;50.818;4.344;2023-05-29T10:10:27;13.73;;;3.70;;
34725;SDS011;20951;50.818;4.344;2023-05-29T10:12:58;14.32;;;3.35;;
34725;SDS011;20951;50.818;4.344;2023-05-29T10:15:29;10.70;;;3.38;;
34725;SDS011;20951;50.818;4.344;2023-05-29T10:18:01;12.07;;;3.38;;
34725;SDS011;20951;50.818;4.344;2023-05-29T10:20:34;10.70;;;3.70;;
34725;SDS011;20951;50.818;4.344;2023-05-29T10:23:03;9.80;;;3.45;;
34725;SDS011;20951;50.818;4.344;2023-05-29T10:25:33;12.65;;;3.47;;
34725;SDS011;20951;50.818;4.344;2023-05-29T10:28:01;12.57;;;3.67;;
34725;SDS011;20951;50.818;4.344;2023-05-29T10:30:51;10.32;;;3.15;;
34725;SDS011;20951;50.818;4.344;2023-05-29T10:36:22;13.55;;;3.33;;
34725;SDS011;20951;50.818;4.344;2023-05-29T10:38:55;15.50;;;3.97;;
34725;SDS011;20951;50.818;4.344;2023-05-29T10:49:16;12.25;;;3.28;;
34725;SDS011;20951;50.818;4.344;2023-05-29T10:51:46;10.18;;;3.22;;
34725;SDS011;20951;50.818;4.344;2023-05-29T10:54:15;17.08;;;3.80;;
34725;SDS011;20951;50.818;4.344;2023-05-29T10:56:57;12.95;;;3.50;;
34725;SDS011;20951;50.818;4.344;2023-05-29T10:59:28;13.82;;;3.30;;
34725;SDS011;20951;50.818;4.344;2023-05-29T11:02:02;11.90;;;3.30;;
34725;SDS011;20951;50.818;4.344;2023-05-29T11:04:32;12.25;;;3.08;;
34725;SDS011;20951;50.818;4.344;2023-05-29T11:07:03;12.07;;;3.58;;
34725;SDS011;20951;50.818;4.344;2023-05-29T11:09:37;13.25;;;3.30;;
34725;SDS011;20951;50.818;4.344;2023-05-29T11:15:09;12.98;;;3.47;;
34725;SDS011;20951;50.818;4.344;2023-05-29T11:17:44;11.55;;;3.40;;
34725;SDS011;20951;50.818;4.344;2023-05-29T11:25:32;10.65;;;3.35;;
34725;SDS011;20951;50.818;4.344;2023-05-29T11:28:03;13.27;;;3.47;;
34725;SDS011;20951;50.818;4.344;2023-05-29T11:30:48;9.33;;;3.13;;
34725;SDS011;20951;50.818;4.344;2023-05-29T11:33:24;10.63;;;2.97;;
34725;SDS011;20951;50.818;4.344;2023-05-29T11:35:58;11.05;;;3.20;;
34725;SDS011;20951;50.818;4.344;2023-05-29T11:38:28;15.25;;;3.47;;
34725;SDS011;20951;50.818;4.344;2023-05-29T11:40:57;11.60;;;3.10;;
34725;SDS011;20951;50.818;4.344;2023-05-29T11:43:28;12.30;;;3.20;;
34725;SDS011;20951;50.818;4.344;2023-05-29T11:45:58;12.10;;;3.30;;
34725;SDS011;20951;50.818;4.344;2023-05-29T11:48:29;10.27;;;3.30;;
34725;SDS011;20951;50.818;4.344;2023-05-29T11:51:02;9.77;;;3.25;;
34725;SDS011;20951;50.818;4.344;2023-05-29T11:53:33;12.73;;;3.58;;
34725;SDS011;20951;50.818;4.344;2023-05-29T11:56:08;11.85;;;3.38;;
34725;SDS011;20951;50.818;4.344;2023-05-29T11:58:38;8.68;;;2.75;;
34725;SDS011;20951;50.818;4.344;2023-05-29T12:01:05;10.20;;;3.08;;
34725;SDS011;20951;50.818;4.344;2023-05-29T12:03:39;11.02;;;3.50;;
34725;SDS011;20951;50.818;4.344;2023-05-29T12:06:06;11.25;;;2.92;;
34725;SDS011;20951;50.818;4.344;2023-05-29T12:08:33;11.52;;;3.20;;
34725;SDS011;20951;50.818;4.344;2023-05-29T12:10:59;10.93;;;3.15;;
34725;SDS011;20951;50.818;4.344;2023-05-29T12:13:25;9.32;;;2.92;;
34725;SDS011;20951;50.818;4.344;2023-05-29T12:15:53;8.75;;;3.50;;
34725;SDS011;20951;50.818;4.344;2023-05-29T12:18:25;11.73;;;2.78;;
34725;SDS011;20951;50.818;4.344;2023-05-29T12:20:56;9.68;;;3.03;;
34725;SDS011;20951;50.818;4.344;2023-05-29T12:23:25;9.10;;;2.70;;
34725;SDS011;20951;50.818;4.344;2023-05-29T12:25:56;9.23;;;3.13;;
34725;SDS011;20951;50.818;4.344;2023-05-29T12:28:23;10.05;;;3.28;;
34725;SDS011;20951;50.818;4.344;2023-05-29T12:30:50;10.65;;;3.50;;
34725;SDS011;20951;50.818;4.344;2023-05-29T12:33:29;8.70;;;2.63;;
34725;SDS011;20951;50.818;4.344;2023-05-29T12:38:55;8.30;;;3.20;;
34725;SDS011;20951;50.818;4.344;2023-05-29T12:41:28;12.98;;;3.15;;
34725;SDS011;20951;50.818;4.344;2023-05-29T12:44:01;8.02;;;2.97;;
34725;SDS011;20951;50.818;4.344;2023-05-29T12:46:35;13.35;;;3.30;;
34725;SDS011;20951;50.818;4.344;2023-05-29T12:49:14;12.55;;;3.35;;
34725;SDS011;20951;50.818;4.344;2023-05-29T12:51:48;9.18;;;3.05;;
34725;SDS011;20951;50.818;4.344;2023-05-29T12:54:19;11.55;;;2.90;;
34725;SDS011;20951;50.818;4.344;2023-05-29T12:56:52;14.38;;;3.40;;
34725;SDS011;20951;50.818;4.344;2023-05-29T12:59:26;11.00;;;3.20;;
34725;SDS011;20951;50.818;4.344;2023-05-29T13:01:58;9.27;;;2.80;;
34725;SDS011;20951;50.818;4.344;2023-05-29T13:04:29;10.30;;;3.22;;
34725;SDS011;20951;50.818;4.344;2023-05-29T13:07:00;9.88;;;3.03;;
34725;SDS011;20951;50.818;4.344;2023-05-29T13:09:30;12.60;;;3.55;;
34725;SDS011;20951;50.818;4.344;2023-05-29T13:12:02;10.48;;;3.42;;
34725;SDS011;20951;50.818;4.344;2023-05-29T13:14:37;8.40;;;3.05;;
34725;SDS011;20951;50.818;4.344;2023-05-29T13:17:07;9.82;;;3.60;;
34725;SDS011;20951;50.818;4.344;2023-05-29T13:19:39;6.80;;;2.97;;
34725;SDS011;20951;50.818;4.344;2023-05-29T13:22:11;13.93;;;3.60;;
34725;SDS011;20951;50.818;4.344;2023-05-29T13:24:43;11.38;;;3.53;;
34725;SDS011;20951;50.818;4.344;2023-05-29T13:27:14;11.07;;;3.38;;
34725;SDS011;20951;50.818;4.344;2023-05-29T13:29:45;11.20;;;3.08;;
34725;SDS011;20951;50.818;4.344;2023-05-29T13:32:17;10.88;;;3.28;;
34725;SDS011;20951;50.818;4.344;2023-05-29T13:34:49;11.20;;;3.03;;
34725;SDS011;20951;50.818;4.344;2023-05-29T13:37:20;9.02;;;2.92;;
34725;SDS011;20951;50.818;4.344;2023-05-29T13:39:52;11.18;;;3.08;;
34725;SDS011;20951;50.818;4.344;2023-05-29T13:42:23;10.50;;;3.40;;
34725;SDS011;20951;50.818;4.344;2023-05-29T13:44:53;8.98;;;2.95;;
34725;SDS011;20951;50.818;4.344;2023-05-29T13:47:24;11.82;;;3.33;;
34725;SDS011;20951;50.818;4.344;2023-05-29T13:49:58;10.80;;;3.30;;
34725;SDS011;20951;50.818;4.344;2023-05-29T13:52:28;10.02;;;2.78;;
34725;SDS011;20951;50.818;4.344;2023-05-29T13:54:59;8.88;;;3.38;;
34725;SDS011;20951;50.818;4.344;2023-05-29T13:57:33;11.38;;;3.40;;
34725;SDS011;20951;50.818;4.344;2023-05-29T14:00:05;11.00;;;4.65;;
34725;SDS011;20951;50.818;4.344;2023-05-29T14:02:34;7.93;;;2.65;;
34725;SDS011;20951;50.818;4.344;2023-05-29T14:05:05;9.38;;;3.22;;
34725;SDS011;20951;50.818;4.344;2023-05-29T14:07:36;10.05;;;3.20;;
34725;SDS011;20951;50.818;4.344;2023-05-29T14:10:02;10.48;;;3.20;;
34725;SDS011;20951;50.818;4.344;2023-05-29T14:12:29;11.13;;;3.38;;
34725;SDS011;20951;50.818;4.344;2023-05-29T14:14:58;8.48;;;3.13;;
34725;SDS011;20951;50.818;4.344;2023-05-29T14:17:28;9.85;;;3.13;;
34725;SDS011;20951;50.818;4.344;2023-05-29T14:19:58;11.10;;;3.38;;
34725;SDS011;20951;50.818;4.344;2023-05-29T14:22:29;9.02;;;3.08;;
34725;SDS011;20951;50.818;4.344;2023-05-29T14:25:00;11.73;;;2.92;;
34725;SDS011;20951;50.818;4.344;2023-05-29T14:27:30;8.15;;;3.20;;
34725;SDS011;20951;50.818;4.344;2023-05-29T14:29:59;7.18;;;2.67;;
34725;SDS011;20951;50.818;4.344;2023-05-29T14:32:30;9.70;;;3.25;;
34725;SDS011;20951;50.818;4.344;2023-05-29T14:34:56;13.43;;;3.60;;
34725;SDS011;20951;50.818;4.344;2023-05-29T14:37:23;9.60;;;3.05;;
34725;SDS011;20951;50.818;4.344;2023-05-29T14:39:48;10.43;;;3.35;;
34725;SDS011;20951;50.818;4.344;2023-05-29T14:42:14;12.13;;;3.30;;
34725;SDS011;20951;50.818;4.344;2023-05-29T14:44:41;9.80;;;3.08;;
34725;SDS011;20951;50.818;4.344;2023-05-29T14:47:07;13.07;;;3.17;;
34725;SDS011;20951;50.818;4.344;2023-05-29T14:49:32;11.25;;;2.70;;
34725;SDS011;20951;50.818;4.344;2023-05-29T14:52:03;10.52;;;3.40;;
34725;SDS011;20951;50.818;4.344;2023-05-29T14:54:34;10.23;;;3.33;;
34725;SDS011;20951;50.818;4.344;2023-05-29T14:57:05;10.35;;;3.05;;
34725;SDS011;20951;50.818;4.344;2023-05-29T14:59:37;9.18;;;2.88;;
34725;SDS011;20951;50.818;4.344;2023-05-29T15:02:08;9.40;;;3.15;;
34725;SDS011;20951;50.818;4.344;2023-05-29T15:04:39;13.38;;;3.20;;
34725;SDS011;20951;50.818;4.344;2023-05-29T15:07:12;11.40;;;3.90;;
34725;SDS011;20951;50.818;4.344;2023-05-29T15:09:38;9.13;;;3.10;;
34725;SDS011;20951;50.818;4.344;2023-05-29T15:12:04;9.85;;;3.25;;
34725;SDS011;20951;50.818;4.344;2023-05-29T15:14:31;12.70;;;2.90;;
34725;SDS011;20951;50.818;4.344;2023-05-29T15:16:57;8.70;;;3.10;;
34725;SDS011;20951;50.818;4.344;2023-05-29T15:19:23;10.32;;;3.25;;
34725;SDS011;20951;50.818;4.344;2023-05-29T15:21:49;10.13;;;3.28;;
34725;SDS011;20951;50.818;4.344;2023-05-29T15:24:15;13.38;;;3.45;;
34725;SDS011;20951;50.818;4.344;2023-05-29T15:26:40;7.55;;;3.05;;
34725;SDS011;20951;50.818;4.344;2023-05-29T15:29:06;11.40;;;3.03;;
34725;SDS011;20951;50.818;4.344;2023-05-29T15:31:32;9.98;;;3.42;;
34725;SDS011;20951;50.818;4.344;2023-05-29T15:33:58;12.27;;;3.38;;